Time;durP1;ratioP1;P1;durP2;ratioP2;P2;SDS_P1;SDS_P2;PMS_P1;PMS_P2;Temp;Humidity;BMP_temperature;BMP_pressure;BME280_temperature;BME280_humidity;BME280_pressure;Samples;Min_cycle;Max_cycle;Signal;HPM_P1;HPM_P2
2022/01/13 07:33:29;;;;;;;14.73;7.47;;;-1.80;99.90;;;;;;4932539;29;20047;-91
2022/01/13 07:36:43;;;;;;;18.13;7.77;;;-1.90;99.90;;;;;;4925257;29;20048;-93
2022/01/13 07:43:42;;;;;;;21.30;7.40;;;-1.80;99.90;;;;;;4838308;29;20038;-94
2022/01/13 07:47:01;;;;;;;;;;;;;;;;;;;;;
2022/01/13 07:49:58;;;;;;;19.40;8.13;;;-1.90;99.90;;;;;;4760202;30;20123;-93
2022/01/13 15:55:05;;;;;;;12.87;5.47;;;2.10;99.90;;;;;;6341049;22;20022;-93
2022/01/13 16:11:40;;;;;;;;;;;;;;;;;;;;;
2022/01/13 16:15:11;;;;;;;;;;;;;;;;;;;;;
2022/01/13 16:18:38;;;;;;;;;;;;;;;;;;;;;
2022/01/13 16:28:45;;;;;;;14.27;5.70;;;1.50;99.90;;;;;;5958162;24;20012;-90
2022/01/13 16:35:22;;;;;;;;;;;;;;;;;;;;;
2022/01/13 16:39:13;;;;;;;13.53;6.10;;;1.30;99.90;;;;;;5963777;23;20095;-89
2022/01/13 17:24:49;;;;;;;15.23;6.67;;;1.30;99.90;;;;;;6299279;22;20018;-88
2022/01/13 18:01:52;;;;;;;16.67;6.97;;;1.00;99.90;;;;;;6129825;23;20010;-90
2022/01/13 18:08:07;;;;;;;16.80;6.90;;;0.90;99.90;;;;;;6070152;23;20011;-90
2022/01/13 18:14:26;;;;;;;;;;;;;;;;;;;;;
2022/01/13 18:28:07;;;;;;;;;;;;;;;;;;;;;
2022/01/13 18:38:33;;;;;;;;;;;;;;;;;;;;;
2022/01/13 21:30:07;;;;;;;;;;;;;;;;;;;;;
2022/01/13 21:32:38;;;;;;;18.13;6.40;;;-0.40;99.90;;;;;;6316461;22;20022;-91
2022/01/13 21:35:36;;;;;;;14.90;6.13;;;-0.40;99.90;;;;;;6261522;22;20010;-91
2022/01/13 21:38:44;;;;;;;20.40;6.63;;;-0.40;99.90;;;;;;6290101;22;20065;-93
2022/01/13 21:41:13;;;;;;;14.77;6.20;;;-0.40;99.90;;;;;;6145778;22;20034;-89
2022/01/13 21:43:38;;;;;;;13.37;5.97;;;-0.40;99.90;;;;;;6262710;22;20124;-91
2022/01/13 21:46:12;;;;;;;17.70;6.73;;;-0.30;99.90;;;;;;6288737;22;20039;-92
2022/01/13 21:48:38;;;;;;;15.77;7.30;;;-0.30;99.90;;;;;;6261809;22;20007;-91
2022/01/13 21:51:04;;;;;;;17.17;6.87;;;-0.30;99.90;;;;;;6289099;22;20000;-92
2022/01/13 21:53:32;;;;;;;12.27;6.60;;;-0.40;99.90;;;;;;6289492;22;20013;-90
2022/01/13 21:56:01;;;;;;;15.83;6.47;;;-0.40;99.90;;;;;;6262949;22;20004;-92
2022/01/13 21:58:27;;;;;;;18.97;7.63;;;-0.40;99.90;;;;;;6291980;22;20007;-91
2022/01/13 22:00:53;;;;;;;15.37;6.20;;;-0.40;99.90;;;;;;6263878;22;20007;-91
2022/01/13 22:03:20;;;;;;;15.40;6.77;;;-0.40;99.90;;;;;;6290250;22;20206;-91
2022/01/13 22:05:49;;;;;;;16.47;5.93;;;-0.50;99.90;;;;;;6291410;22;20000;-92
2022/01/13 22:09:39;;;;;;;16.03;7.13;;;-0.50;99.90;;;;;;6292138;22;19984;-91
2022/01/13 22:11:24;;;;;;;15.80;7.00;;;-0.50;99.90;;;;;;6290838;22;20002;-90
2022/01/13 22:13:57;;;;;;;16.93;7.17;;;-0.50;99.90;;;;;;6264995;22;20371;-91
2022/01/13 22:16:25;;;;;;;12.50;5.47;;;-0.50;99.90;;;;;;6265302;22;20066;-90
2022/01/13 22:18:56;;;;;;;14.20;5.80;;;-0.50;99.90;;;;;;6262486;22;20074;-90
2022/01/13 22:21:27;;;;;;;13.10;6.30;;;-0.50;99.90;;;;;;6262443;22;20019;-90
2022/01/13 22:23:53;;;;;;;17.47;7.07;;;-0.50;99.90;;;;;;6261481;22;20059;-90
2022/01/13 22:26:19;;;;;;;16.57;6.67;;;-0.50;99.90;;;;;;6260217;22;20011;-91
2022/01/13 22:28:45;;;;;;;12.67;6.30;;;-0.50;99.90;;;;;;6290731;22;19999;-91
2022/01/13 22:31:10;;;;;;;14.07;5.87;;;-0.60;99.90;;;;;;6286254;22;20015;-90
2022/01/13 22:33:36;;;;;;;18.93;6.33;;;-0.60;99.90;;;;;;6287035;22;20003;-90
2022/01/13 22:36:09;;;;;;;21.37;7.37;;;-0.50;99.90;;;;;;6286894;22;20004;-90
2022/01/13 22:38:48;;;;;;;17.93;7.27;;;-0.60;99.90;;;;;;6286389;22;20000;-91
2022/01/13 22:41:30;;;;;;;15.23;6.60;;;-0.50;99.90;;;;;;6288313;22;20017;-89
2022/01/13 22:43:59;;;;;;;17.80;5.82;;;-0.50;99.90;;;;;;6289393;22;20000;-91
2022/01/13 22:46:25;;;;;;;18.17;6.87;;;-0.50;99.90;;;;;;6287340;22;20003;-91
2022/01/13 22:48:56;;;;;;;18.33;6.60;;;-0.60;99.90;;;;;;6289312;22;20007;-89
2022/01/13 22:51:24;;;;;;;16.33;6.73;;;-0.50;99.90;;;;;;6288147;22;20011;-90
2022/01/13 22:53:53;;;;;;;18.87;6.43;;;-0.60;99.90;;;;;;6286657;22;20003;-91
2022/01/13 22:56:20;;;;;;;17.27;7.27;;;-0.60;99.90;;;;;;6283874;22;19999;-92
2022/01/13 22:58:50;;;;;;;14.87;6.67;;;-0.50;99.90;;;;;;6285149;22;20004;-90
2022/01/13 23:01:26;;;;;;;15.77;6.57;;;-0.50;99.90;;;;;;6284769;22;20010;-91
2022/01/13 23:04:04;;;;;;;;;;;;;;;;;;;;;
2022/01/13 23:06:32;;;;;;;16.90;6.73;;;-0.60;99.90;;;;;;6289835;22;20030;-90
2022/01/13 23:09:03;;;;;;;16.17;6.70;;;-0.60;99.90;;;;;;6288679;22;19996;-91
2022/01/13 23:11:32;;;;;;;16.97;7.57;;;-0.60;99.90;;;;;;6288095;22;20019;-90
2022/01/13 23:14:09;;;;;;;14.13;6.47;;;-0.60;99.90;;;;;;6287360;22;19999;-89
2022/01/13 23:22:15;;;;;;;14.90;6.30;;;-0.70;99.90;;;;;;6288778;22;20136;-91
2022/01/13 23:25:07;;;;;;;17.27;6.63;;;-0.70;99.90;;;;;;6288195;22;20000;-91
2022/01/13 23:27:36;;;;;;;13.30;6.43;;;-0.70;99.90;;;;;;6286067;22;20004;-92
2022/01/13 23:30:03;;;;;;;14.77;6.60;;;-0.70;99.90;;;;;;6287980;22;20015;-90
2022/01/13 23:32:29;;;;;;;15.57;7.10;;;-0.70;99.90;;;;;;6286983;22;20007;-91
2022/01/13 23:34:55;;;;;;;16.43;7.03;;;-0.80;99.90;;;;;;6288192;22;20007;-91
2022/01/13 23:37:28;;;;;;;16.97;7.30;;;-0.80;99.90;;;;;;6287156;22;20004;-92
2022/01/13 23:39:58;;;;;;;16.17;6.33;;;-0.80;99.90;;;;;;6289397;22;20004;-90
2022/01/13 23:42:26;;;;;;;16.87;6.93;;;-1.00;99.90;;;;;;6287911;22;20011;-91
2022/01/13 23:44:52;;;;;;;20.50;7.30;;;-0.80;99.90;;;;;;6285639;22;19999;-91
2022/01/13 23:47:40;;;;;;;20.73;7.27;;;-0.80;99.90;;;;;;6290065;22;20038;-89
2022/01/13 23:50:09;;;;;;;20.87;7.60;;;-0.80;99.90;;;;;;6287802;22;20004;-90
2022/01/13 23:52:40;;;;;;;21.20;8.07;;;-0.80;99.90;;;;;;6288716;22;20011;-90
2022/01/13 23:55:09;;;;;;;19.90;7.83;;;-0.80;99.90;;;;;;6290643;22;20057;-88
2022/01/13 23:57:35;;;;;;;17.57;7.60;;;-0.80;99.90;;;;;;6288380;22;20008;-89
